sensor_id;sensor_type;location;lat;lon;timestamp;temperature;humidity
38910;DHT22;24676;51.360;12.354;2022-10-26T04:01:43;7.70;99.90
38910;DHT22;24676;51.360;12.354;2022-10-26T04:04:28;7.60;99.90
38910;DHT22;24676;51.360;12.354;2022-10-26T04:07:12;7.60;99.90
38910;DHT22;24676;51.360;12.354;2022-10-26T04:09:56;7.60;99.90
38910;DHT22;24676;51.360;12.354;2022-10-26T04:12:40;7.60;99.90
38910;DHT22;24676;51.360;12.354;2022-10-26T04:15:25;7.60;99.90
38910;DHT22;24676;51.360;12.354;2022-10-26T04:18:09;7.60;99.90
38910;DHT22;24676;51.360;12.354;2022-10-26T04:21:00;7.60;99.90
38910;DHT22;24676;51.360;12.354;2022-10-26T04:23:45;7.50;99.90
38910;DHT22;24676;51.360;12.354;2022-10-26T04:26:29;7.50;99.90
38910;DHT22;24676;51.360;12.354;2022-10-26T04:29:14;7.60;99.90
38910;DHT22;24676;51.360;12.354;2022-10-26T04:31:58;7.70;99.90
38910;DHT22;24676;51.360;12.354;2022-10-26T04:34:42;7.80;99.90
38910;DHT22;24676;51.360;12.354;2022-10-26T04:37:26;7.90;99.90
38910;DHT22;24676;51.360;12.354;2022-10-26T04:40:10;7.90;99.90
38910;DHT22;24676;51.360;12.354;2022-10-26T04:42:55;7.90;99.90
38910;DHT22;24676;51.360;12.354;2022-10-26T04:45:39;7.90;99.90
38910;DHT22;24676;51.360;12.354;2022-10-26T04:48:23;7.80;99.90
38910;DHT22;24676;51.360;12.354;2022-10-26T04:51:08;7.70;99.90
38910;DHT22;24676;51.360;12.354;2022-10-26T04:53:53;7.80;99.90
38910;DHT22;24676;51.360;12.354;2022-10-26T04:56:38;7.90;99.90
38910;DHT22;24676;51.360;12.354;2022-10-26T04:59:22;8.10;99.90
38910;DHT22;24676;51.360;12.354;2022-10-26T05:02:06;8.30;99.90
38910;DHT22;24676;51.360;12.354;2022-10-26T05:04:51;8.40;99.90
38910;DHT22;24676;51.360;12.354;2022-10-26T05:07:35;8.50;99.90
38910;DHT22;24676;51.360;12.354;2022-10-26T05:10:19;8.60;99.90
38910;DHT22;24676;51.360;12.354;2022-10-26T05:13:03;8.60;99.90
38910;DHT22;24676;51.360;12.354;2022-10-26T05:15:47;8.70;99.90
38910;DHT22;24676;51.360;12.354;2022-10-26T05:18:32;8.70;99.90
38910;DHT22;24676;51.360;12.354;2022-10-26T05:21:16;8.80;99.90
38910;DHT22;24676;51.360;12.354;2022-10-26T05:24:02;8.80;99.90
38910;DHT22;24676;51.360;12.354;2022-10-26T05:26:46;8.80;99.90
38910;DHT22;24676;51.360;12.354;2022-10-26T05:29:30;8.80;99.90
38910;DHT22;24676;51.360;12.354;2022-10-26T05:32:14;8.90;99.90
38910;DHT22;24676;51.360;12.354;2022-10-26T05:34:58;8.90;99.90
38910;DHT22;24676;51.360;12.354;2022-10-26T05:37:42;8.90;99.90
38910;DHT22;24676;51.360;12.354;2022-10-26T05:40:27;8.90;99.90
38910;DHT22;24676;51.360;12.354;2022-10-26T05:43:10;8.90;99.90
38910;DHT22;24676;51.360;12.354;2022-10-26T05:45:54;9.00;99.90
38910;DHT22;24676;51.360;12.354;2022-10-26T05:48:39;9.00;99.90
38910;DHT22;24676;51.360;12.354;2022-10-26T05:51:23;8.90;99.90
38910;DHT22;24676;51.360;12.354;2022-10-26T05:54:07;8.90;99.90
38910;DHT22;24676;51.360;12.354;2022-10-26T05:56:52;9.00;99.90
38910;DHT22;24676;51.360;12.354;2022-10-26T05:59:36;9.00;99.90
38910;DHT22;24676;51.360;12.354;2022-10-26T06:02:32;9.00;99.90
38910;DHT22;24676;51.360;12.354;2022-10-26T06:05:25;9.00;99.90
38910;DHT22;24676;51.360;12.354;2022-10-26T06:08:10;9.10;99.90
38910;DHT22;24676;51.360;12.354;2022-10-26T06:10:56;9.20;99.90
38910;DHT22;24676;51.360;12.354;2022-10-26T06:13:42;9.30;99.90
38910;DHT22;24676;51.360;12.354;2022-10-26T06:31:45;9.80;99.90
38910;DHT22;24676;51.360;12.354;2022-10-26T06:34:34;10.00;99.90
38910;DHT22;24676;51.360;12.354;2022-10-26T06:37:20;10.10;99.90
38910;DHT22;24676;51.360;12.354;2022-10-26T06:40:05;10.30;99.90
38910;DHT22;24676;51.360;12.354;2022-10-26T06:42:50;10.40;99.90
38910;DHT22;24676;51.360;12.354;2022-10-26T06:45:35;10.50;99.90
38910;DHT22;24676;51.360;12.354;2022-10-26T06:48:21;10.70;99.90
38910;DHT22;24676;51.360;12.354;2022-10-26T06:51:11;10.80;99.90
38910;DHT22;24676;51.360;12.354;2022-10-26T06:54:24;10.90;99.90
38910;DHT22;24676;51.360;12.354;2022-10-26T06:57:11;11.00;99.90
38910;DHT22;24676;51.360;12.354;2022-10-26T07:00:06;11.10;99.90
38910;DHT22;24676;51.360;12.354;2022-10-26T07:02:50;11.20;99.90
38910;DHT22;24676;51.360;12.354;2022-10-26T07:05:34;11.30;99.90
38910;DHT22;24676;51.360;12.354;2022-10-26T07:08:19;11.50;99.90
38910;DHT22;24676;51.360;12.354;2022-10-26T07:11:03;11.50;99.90
38910;DHT22;24676;51.360;12.354;2022-10-26T07:13:47;11.60;99.90
38910;DHT22;24676;51.360;12.354;2022-10-26T07:16:33;11.80;99.90
38910;DHT22;24676;51.360;12.354;2022-10-26T07:19:17;11.90;99.90
38910;DHT22;24676;51.360;12.354;2022-10-26T07:22:01;12.00;99.90
38910;DHT22;24676;51.360;12.354;2022-10-26T07:24:45;12.10;99.90
38910;DHT22;24676;51.360;12.354;2022-10-26T07:27:34;12.50;99.90
38910;DHT22;24676;51.360;12.354;2022-10-26T07:30:18;13.20;99.90
38910;DHT22;24676;51.360;12.354;2022-10-26T07:33:11;14.40;99.90
38910;DHT22;24676;51.360;12.354;2022-10-26T07:35:58;16.40;99.90
38910;DHT22;24676;51.360;12.354;2022-10-26T07:38:42;18.30;99.90
38910;DHT22;24676;51.360;12.354;2022-10-26T07:41:27;18.70;98.90
38910;DHT22;24676;51.360;12.354;2022-10-26T07:44:10;19.30;93.30
38910;DHT22;24676;51.360;12.354;2022-10-26T07:46:55;19.20;90.30
38910;DHT22;24676;51.360;12.354;2022-10-26T07:49:38;19.00;91.30
38910;DHT22;24676;51.360;12.354;2022-10-26T07:52:26;18.70;90.60
38910;DHT22;24676;51.360;12.354;2022-10-26T07:55:11;18.00;92.60
38910;DHT22;24676;51.360;12.354;2022-10-26T07:57:55;17.40;95.70
38910;DHT22;24676;51.360;12.354;2022-10-26T08:00:40;16.80;99.90
38910;DHT22;24676;51.360;12.354;2022-10-26T08:03:24;16.30;99.90
38910;DHT22;24676;51.360;12.354;2022-10-26T08:06:08;16.10;99.90
38910;DHT22;24676;51.360;12.354;2022-10-26T08:08:53;16.20;99.90
38910;DHT22;24676;51.360;12.354;2022-10-26T08:11:37;16.50;99.90
38910;DHT22;24676;51.360;12.354;2022-10-26T08:14:21;16.70;99.90
38910;DHT22;24676;51.360;12.354;2022-10-26T08:17:06;17.00;99.90
38910;DHT22;24676;51.360;12.354;2022-10-26T08:19:50;17.40;99.90
38910;DHT22;24676;51.360;12.354;2022-10-26T08:22:35;17.70;99.90
38910;DHT22;24676;51.360;12.354;2022-10-26T08:25:19;18.10;99.90
38910;DHT22;24676;51.360;12.354;2022-10-26T08:28:03;18.30;95.90
38910;DHT22;24676;51.360;12.354;2022-10-26T08:30:48;18.40;96.20
38910;DHT22;24676;51.360;12.354;2022-10-26T08:33:32;18.70;94.70
38910;DHT22;24676;51.360;12.354;2022-10-26T08:36:22;18.80;94.20
38910;DHT22;24676;51.360;12.354;2022-10-26T08:39:07;19.00;92.90
38910;DHT22;24676;51.360;12.354;2022-10-26T08:41:57;19.20;93.10
38910;DHT22;24676;51.360;12.354;2022-10-26T08:44:45;19.40;90.80
38910;DHT22;24676;51.360;12.354;2022-10-26T08:47:31;19.50;88.50
38910;DHT22;24676;51.360;12.354;2022-10-26T08:50:27;19.60;87.30
38910;DHT22;24676;51.360;12.354;2022-10-26T08:53:49;19.60;85.70
38910;DHT22;24676;51.360;12.354;2022-10-26T08:56:39;19.10;88.30
38910;DHT22;24676;51.360;12.354;2022-10-26T08:59:35;18.70;90.20
38910;DHT22;24676;51.360;12.354;2022-10-26T09:02:20;18.60;91.10
38910;DHT22;24676;51.360;12.354;2022-10-26T09:05:14;18.20;91.60
38910;DHT22;24676;51.360;12.354;2022-10-26T09:11:33;18.00;93.60
38910;DHT22;24676;51.360;12.354;2022-10-26T09:20:54;18.00;95.30
38910;DHT22;24676;51.360;12.354;2022-10-26T09:23:46;18.00;94.90
38910;DHT22;24676;51.360;12.354;2022-10-26T09:29:44;18.00;95.40
38910;DHT22;24676;51.360;12.354;2022-10-26T09:32:35;18.10;96.60
38910;DHT22;24676;51.360;12.354;2022-10-26T09:35:22;18.30;95.70
38910;DHT22;24676;51.360;12.354;2022-10-26T09:38:30;18.50;94.90
38910;DHT22;24676;51.360;12.354;2022-10-26T09:50:13;20.60;81.50
38910;DHT22;24676;51.360;12.354;2022-10-26T09:52:59;20.50;80.60
38910;DHT22;24676;51.360;12.354;2022-10-26T09:55:48;20.20;83.80
38910;DHT22;24676;51.360;12.354;2022-10-26T09:58:49;20.10;84.30
38910;DHT22;24676;51.360;12.354;2022-10-26T10:01:35;19.90;87.80
38910;DHT22;24676;51.360;12.354;2022-10-26T10:04:22;19.90;89.30
38910;DHT22;24676;51.360;12.354;2022-10-26T10:13:14;20.20;83.80
38910;DHT22;24676;51.360;12.354;2022-10-26T10:16:03;20.00;86.00
38910;DHT22;24676;51.360;12.354;2022-10-26T10:18:55;19.90;87.30
38910;DHT22;24676;51.360;12.354;2022-10-26T10:21:44;19.70;89.00
38910;DHT22;24676;51.360;12.354;2022-10-26T10:24:32;19.60;90.00
38910;DHT22;24676;51.360;12.354;2022-10-26T10:27:17;19.60;90.60
38910;DHT22;24676;51.360;12.354;2022-10-26T10:30:23;19.50;90.10
38910;DHT22;24676;51.360;12.354;2022-10-26T10:33:11;19.50;91.50
38910;DHT22;24676;51.360;12.354;2022-10-26T10:35:56;19.60;91.40
38910;DHT22;24676;51.360;12.354;2022-10-26T10:38:43;19.70;91.00
38910;DHT22;24676;51.360;12.354;2022-10-26T10:41:30;19.70;90.40
38910;DHT22;24676;51.360;12.354;2022-10-26T10:44:27;19.60;91.60
38910;DHT22;24676;51.360;12.354;2022-10-26T10:47:21;19.50;91.80
38910;DHT22;24676;51.360;12.354;2022-10-26T10:50:14;19.40;91.60
38910;DHT22;24676;51.360;12.354;2022-10-26T10:53:21;19.20;93.10
38910;DHT22;24676;51.360;12.354;2022-10-26T10:56:26;19.10;94.70
38910;DHT22;24676;51.360;12.354;2022-10-26T10:59:46;19.00;96.10
38910;DHT22;24676;51.360;12.354;2022-10-26T11:02:47;19.00;96.30
38910;DHT22;24676;51.360;12.354;2022-10-26T11:05:49;19.00;96.90
38910;DHT22;24676;51.360;12.354;2022-10-26T11:08:53;19.20;96.60
38910;DHT22;24676;51.360;12.354;2022-10-26T11:11:53;19.20;96.90
38910;DHT22;24676;51.360;12.354;2022-10-26T11:14:41;19.20;98.10
38910;DHT22;24676;51.360;12.354;2022-10-26T11:17:30;19.30;96.90
38910;DHT22;24676;51.360;12.354;2022-10-26T11:20:18;19.30;98.10
38910;DHT22;24676;51.360;12.354;2022-10-26T11:23:20;19.60;97.20
38910;DHT22;24676;51.360;12.354;2022-10-26T11:26:30;19.90;95.90
38910;DHT22;24676;51.360;12.354;2022-10-26T11:32:44;20.00;95.80
38910;DHT22;24676;51.360;12.354;2022-10-26T11:35:44;20.00;94.40
38910;DHT22;24676;51.360;12.354;2022-10-26T11:41:47;20.00;93.30
38910;DHT22;24676;51.360;12.354;2022-10-26T11:44:52;19.90;95.00
38910;DHT22;24676;51.360;12.354;2022-10-26T11:48:12;20.00;95.90
38910;DHT22;24676;51.360;12.354;2022-10-26T11:50:58;20.10;93.40
38910;DHT22;24676;51.360;12.354;2022-10-26T11:53:44;19.90;93.70
38910;DHT22;24676;51.360;12.354;2022-10-26T11:56:33;19.80;94.40
38910;DHT22;24676;51.360;12.354;2022-10-26T11:59:20;19.70;94.30
38910;DHT22;24676;51.360;12.354;2022-10-26T12:02:21;19.60;93.80
38910;DHT22;24676;51.360;12.354;2022-10-26T12:05:19;19.40;94.30
38910;DHT22;24676;51.360;12.354;2022-10-26T12:08:17;19.30;96.90
38910;DHT22;24676;51.360;12.354;2022-10-26T12:17:36;19.30;98.70
38910;DHT22;24676;51.360;12.354;2022-10-26T12:20:53;19.30;98.40
38910;DHT22;24676;51.360;12.354;2022-10-26T12:23:56;19.20;98.20
38910;DHT22;24676;51.360;12.354;2022-10-26T12:26:58;19.20;99.50
38910;DHT22;24676;51.360;12.354;2022-10-26T12:29:47;19.00;99.10
38910;DHT22;24676;51.360;12.354;2022-10-26T12:35:42;18.80;99.90
38910;DHT22;24676;51.360;12.354;2022-10-26T12:41:37;18.60;99.90
38910;DHT22;24676;51.360;12.354;2022-10-26T12:50:24;18.50;99.90
38910;DHT22;24676;51.360;12.354;2022-10-26T12:53:15;18.50;99.90
38910;DHT22;24676;51.360;12.354;2022-10-26T12:56:05;18.50;99.90
38910;DHT22;24676;51.360;12.354;2022-10-26T13:08:27;19.20;99.40
38910;DHT22;24676;51.360;12.354;2022-10-26T13:11:28;19.10;99.40
38910;DHT22;24676;51.360;12.354;2022-10-26T13:14:21;19.00;99.90
38910;DHT22;24676;51.360;12.354;2022-10-26T13:17:29;19.00;99.90
38910;DHT22;24676;51.360;12.354;2022-10-26T13:20:16;19.00;99.90
38910;DHT22;24676;51.360;12.354;2022-10-26T13:23:02;19.00;99.90
38910;DHT22;24676;51.360;12.354;2022-10-26T13:28:50;19.10;99.90
38910;DHT22;24676;51.360;12.354;2022-10-26T13:34:29;18.80;99.90
38910;DHT22;24676;51.360;12.354;2022-10-26T13:37:24;18.70;99.90
38910;DHT22;24676;51.360;12.354;2022-10-26T13:40:15;18.70;99.90
38910;DHT22;24676;51.360;12.354;2022-10-26T13:43:03;18.70;99.90
38910;DHT22;24676;51.360;12.354;2022-10-26T13:45:55;18.60;99.90
38910;DHT22;24676;51.360;12.354;2022-10-26T13:48:41;18.60;99.90
38910;DHT22;24676;51.360;12.354;2022-10-26T13:51:42;18.70;99.90
38910;DHT22;24676;51.360;12.354;2022-10-26T13:57:37;18.60;99.90
38910;DHT22;24676;51.360;12.354;2022-10-26T14:00:22;18.50;99.90
38910;DHT22;24676;51.360;12.354;2022-10-26T14:03:17;18.40;99.90
38910;DHT22;24676;51.360;12.354;2022-10-26T14:06:06;18.30;99.90
38910;DHT22;24676;51.360;12.354;2022-10-26T14:08:53;18.10;99.90
38910;DHT22;24676;51.360;12.354;2022-10-26T14:11:51;18.00;99.90
38910;DHT22;24676;51.360;12.354;2022-10-26T14:14:36;17.90;99.90
38910;DHT22;24676;51.360;12.354;2022-10-26T14:17:23;17.80;99.90
38910;DHT22;24676;51.360;12.354;2022-10-26T14:20:17;17.70;99.90
38910;DHT22;24676;51.360;12.354;2022-10-26T14:23:02;17.60;99.90
38910;DHT22;24676;51.360;12.354;2022-10-26T14:25:52;17.50;99.90
38910;DHT22;24676;51.360;12.354;2022-10-26T14:28:44;17.50;99.90
38910;DHT22;24676;51.360;12.354;2022-10-26T14:31:32;17.50;99.90
38910;DHT22;24676;51.360;12.354;2022-10-26T14:34:18;17.50;99.90
38910;DHT22;24676;51.360;12.354;2022-10-26T14:37:03;17.50;99.90
38910;DHT22;24676;51.360;12.354;2022-10-26T14:39:48;17.60;99.90
38910;DHT22;24676;51.360;12.354;2022-10-26T14:42:37;17.60;99.90
38910;DHT22;24676;51.360;12.354;2022-10-26T14:45:35;17.60;99.90
38910;DHT22;24676;51.360;12.354;2022-10-26T14:51:18;17.60;99.90
38910;DHT22;24676;51.360;12.354;2022-10-26T14:54:04;17.60;99.90
38910;DHT22;24676;51.360;12.354;2022-10-26T14:56:48;17.50;99.90
38910;DHT22;24676;51.360;12.354;2022-10-26T14:59:33;17.50;99.90
38910;DHT22;24676;51.360;12.354;2022-10-26T15:02:19;17.30;99.90
38910;DHT22;24676;51.360;12.354;2022-10-26T15:05:29;17.20;99.90
38910;DHT22;24676;51.360;12.354;2022-10-26T15:08:41;17.10;99.90
38910;DHT22;24676;51.360;12.354;2022-10-26T15:11:27;16.90;99.90
38910;DHT22;24676;51.360;12.354;2022-10-26T15:14:14;16.80;99.90
38910;DHT22;24676;51.360;12.354;2022-10-26T15:16:59;16.70;99.90
38910;DHT22;24676;51.360;12.354;2022-10-26T15:19:44;16.60;99.90
38910;DHT22;24676;51.360;12.354;2022-10-26T15:22:28;16.60;99.90
38910;DHT22;24676;51.360;12.354;2022-10-26T15:25:17;16.50;99.90
38910;DHT22;24676;51.360;12.354;2022-10-26T15:31:30;16.40;99.90
38910;DHT22;24676;51.360;12.354;2022-10-26T15:34:14;16.30;99.90
38910;DHT22;24676;51.360;12.354;2022-10-26T15:36:58;16.30;99.90
38910;DHT22;24676;51.360;12.354;2022-10-26T15:39:43;16.20;99.90
38910;DHT22;24676;51.360;12.354;2022-10-26T15:42:27;16.10;99.90
38910;DHT22;24676;51.360;12.354;2022-10-26T15:45:45;16.10;99.90
38910;DHT22;24676;51.360;12.354;2022-10-26T15:48:35;16.00;99.90
38910;DHT22;24676;51.360;12.354;2022-10-26T15:51:19;15.90;99.90
38910;DHT22;24676;51.360;12.354;2022-10-26T15:54:04;15.90;99.90
38910;DHT22;24676;51.360;12.354;2022-10-26T15:56:48;15.90;99.90
38910;DHT22;24676;51.360;12.354;2022-10-26T15:59:33;15.80;99.90
38910;DHT22;24676;51.360;12.354;2022-10-26T16:02:17;15.80;99.90
38910;DHT22;24676;51.360;12.354;2022-10-26T16:05:01;15.80;99.90
38910;DHT22;24676;51.360;12.354;2022-10-26T16:07:46;15.70;99.90
38910;DHT22;24676;51.360;12.354;2022-10-26T16:10:31;15.70;99.90
38910;DHT22;24676;51.360;12.354;2022-10-26T16:13:16;15.70;99.90
38910;DHT22;24676;51.360;12.354;2022-10-26T16:16:00;15.70;99.90
38910;DHT22;24676;51.360;12.354;2022-10-26T16:18:45;15.60;99.90
38910;DHT22;24676;51.360;12.354;2022-10-26T16:21:29;15.60;99.90
38910;DHT22;24676;51.360;12.354;2022-10-26T16:24:13;15.60;99.90
38910;DHT22;24676;51.360;12.354;2022-10-26T16:26:58;15.60;99.90
38910;DHT22;24676;51.360;12.354;2022-10-26T16:29:42;15.50;99.90
38910;DHT22;24676;51.360;12.354;2022-10-26T16:32:26;15.50;99.90
38910;DHT22;24676;51.360;12.354;2022-10-26T16:35:11;15.50;99.90
38910;DHT22;24676;51.360;12.354;2022-10-26T16:37:55;15.50;99.90
38910;DHT22;24676;51.360;12.354;2022-10-26T16:40:39;15.50;99.90
38910;DHT22;24676;51.360;12.354;2022-10-26T16:43:26;15.40;99.90
38910;DHT22;24676;51.360;12.354;2022-10-26T16:46:12;15.40;99.90
38910;DHT22;24676;51.360;12.354;2022-10-26T16:48:57;15.30;99.90
38910;DHT22;24676;51.360;12.354;2022-10-26T16:51:42;15.30;99.90
38910;DHT22;24676;51.360;12.354;2022-10-26T16:54:27;15.20;99.90
38910;DHT22;24676;51.360;12.354;2022-10-26T16:57:14;15.10;99.90
38910;DHT22;24676;51.360;12.354;2022-10-26T16:59:58;15.00;99.90
38910;DHT22;24676;51.360;12.354;2022-10-26T17:02:42;14.90;99.90
38910;DHT22;24676;51.360;12.354;2022-10-26T17:05:28;14.80;99.90
38910;DHT22;24676;51.360;12.354;2022-10-26T17:08:12;14.60;99.90
38910;DHT22;24676;51.360;12.354;2022-10-26T17:11:05;14.50;99.90
38910;DHT22;24676;51.360;12.354;2022-10-26T17:13:54;14.40;99.90
38910;DHT22;24676;51.360;12.354;2022-10-26T17:16:38;14.30;99.90
38910;DHT22;24676;51.360;12.354;2022-10-26T17:19:25;14.20;99.90
38910;DHT22;24676;51.360;12.354;2022-10-26T17:22:12;14.20;99.90
38910;DHT22;24676;51.360;12.354;2022-10-26T17:24:56;14.10;99.90
38910;DHT22;24676;51.360;12.354;2022-10-26T17:27:40;13.90;99.90
38910;DHT22;24676;51.360;12.354;2022-10-26T17:30:25;13.90;99.90
38910;DHT22;24676;51.360;12.354;2022-10-26T17:33:10;13.80;99.90
38910;DHT22;24676;51.360;12.354;2022-10-26T17:35:54;13.70;99.90
38910;DHT22;24676;51.360;12.354;2022-10-26T17:38:40;13.60;99.90
38910;DHT22;24676;51.360;12.354;2022-10-26T17:41:25;13.60;99.90
38910;DHT22;24676;51.360;12.354;2022-10-26T17:44:10;13.50;99.90
38910;DHT22;24676;51.360;12.354;2022-10-26T17:46:54;13.40;99.90
38910;DHT22;24676;51.360;12.354;2022-10-26T17:49:41;13.40;99.90
38910;DHT22;24676;51.360;12.354;2022-10-26T17:52:25;13.40;99.90
38910;DHT22;24676;51.360;12.354;2022-10-26T17:55:10;13.30;99.90
38910;DHT22;24676;51.360;12.354;2022-10-26T17:57:54;13.20;99.90
38910;DHT22;24676;51.360;12.354;2022-10-26T18:00:39;13.20;99.90
38910;DHT22;24676;51.360;12.354;2022-10-26T18:03:23;13.10;99.90
38910;DHT22;24676;51.360;12.354;2022-10-26T18:06:08;13.10;99.90
38910;DHT22;24676;51.360;12.354;2022-10-26T18:08:52;13.00;99.90
38910;DHT22;24676;51.360;12.354;2022-10-26T18:11:36;13.00;99.90
38910;DHT22;24676;51.360;12.354;2022-10-26T18:14:20;13.00;99.90
38910;DHT22;24676;51.360;12.354;2022-10-26T18:17:04;13.00;99.90
38910;DHT22;24676;51.360;12.354;2022-10-26T18:19:48;12.90;99.90
38910;DHT22;24676;51.360;12.354;2022-10-26T18:22:33;12.90;99.90
38910;DHT22;24676;51.360;12.354;2022-10-26T18:25:17;12.80;99.90
38910;DHT22;24676;51.360;12.354;2022-10-26T18:28:02;12.80;99.90
38910;DHT22;24676;51.360;12.354;2022-10-26T18:30:46;12.80;99.90
38910;DHT22;24676;51.360;12.354;2022-10-26T18:33:31;12.80;99.90
38910;DHT22;24676;51.360;12.354;2022-10-26T18:36:16;12.90;99.90
38910;DHT22;24676;51.360;12.354;2022-10-26T18:39:01;12.90;99.90
38910;DHT22;24676;51.360;12.354;2022-10-26T18:41:45;12.90;99.90
38910;DHT22;24676;51.360;12.354;2022-10-26T18:44:30;12.90;99.90
38910;DHT22;24676;51.360;12.354;2022-10-26T18:47:14;12.90;99.90
38910;DHT22;24676;51.360;12.354;2022-10-26T18:49:58;12.90;99.90
38910;DHT22;24676;51.360;12.354;2022-10-26T18:52:42;12.90;99.90
38910;DHT22;24676;51.360;12.354;2022-10-26T18:55:27;12.90;99.90
38910;DHT22;24676;51.360;12.354;2022-10-26T18:58:11;12.90;99.90
38910;DHT22;24676;51.360;12.354;2022-10-26T19:04:04;12.90;99.90
38910;DHT22;24676;51.360;12.354;2022-10-26T19:06:48;12.80;99.90
38910;DHT22;24676;51.360;12.354;2022-10-26T19:09:33;12.80;99.90
38910;DHT22;24676;51.360;12.354;2022-10-26T19:12:17;12.80;99.90
38910;DHT22;24676;51.360;12.354;2022-10-26T19:15:02;12.70;99.90
38910;DHT22;24676;51.360;12.354;2022-10-26T19:17:46;12.70;99.90
38910;DHT22;24676;51.360;12.354;2022-10-26T19:20:31;12.70;99.90
38910;DHT22;24676;51.360;12.354;2022-10-26T19:23:15;12.80;99.90
38910;DHT22;24676;51.360;12.354;2022-10-26T19:25:59;12.80;99.90
38910;DHT22;24676;51.360;12.354;2022-10-26T19:28:44;12.80;99.90
38910;DHT22;24676;51.360;12.354;2022-10-26T19:31:28;12.90;99.90
38910;DHT22;24676;51.360;12.354;2022-10-26T19:34:16;12.90;99.90
38910;DHT22;24676;51.360;12.354;2022-10-26T19:37:01;13.00;99.90
38910;DHT22;24676;51.360;12.354;2022-10-26T19:39:45;13.00;99.90
38910;DHT22;24676;51.360;12.354;2022-10-26T19:42:29;12.90;99.90
38910;DHT22;24676;51.360;12.354;2022-10-26T19:45:14;12.90;99.90
38910;DHT22;24676;51.360;12.354;2022-10-26T19:47:58;12.90;99.90
38910;DHT22;24676;51.360;12.354;2022-10-26T19:50:49;12.90;99.90
38910;DHT22;24676;51.360;12.354;2022-10-26T19:53:34;12.90;99.90
38910;DHT22;24676;51.360;12.354;2022-10-26T19:56:19;12.90;99.90
38910;DHT22;24676;51.360;12.354;2022-10-26T19:59:05;12.90;99.90
38910;DHT22;24676;51.360;12.354;2022-10-26T20:01:50;12.90;99.90
38910;DHT22;24676;51.360;12.354;2022-10-26T20:04:34;12.90;99.90
38910;DHT22;24676;51.360;12.354;2022-10-26T20:07:18;12.90;99.90
38910;DHT22;24676;51.360;12.354;2022-10-26T20:10:04;12.80;99.90
38910;DHT22;24676;51.360;12.354;2022-10-26T20:12:48;12.80;99.90
38910;DHT22;24676;51.360;12.354;2022-10-26T20:15:33;12.70;99.90
38910;DHT22;24676;51.360;12.354;2022-10-26T20:18:18;12.60;99.90
38910;DHT22;24676;51.360;12.354;2022-10-26T20:21:09;12.60;99.90
38910;DHT22;24676;51.360;12.354;2022-10-26T20:23:54;12.50;99.90
38910;DHT22;24676;51.360;12.354;2022-10-26T20:26:39;12.40;99.90
38910;DHT22;24676;51.360;12.354;2022-10-26T20:29:23;12.40;99.90
38910;DHT22;24676;51.360;12.354;2022-10-26T20:32:07;12.30;99.90
38910;DHT22;24676;51.360;12.354;2022-10-26T20:34:53;12.20;99.90
38910;DHT22;24676;51.360;12.354;2022-10-26T20:37:37;12.20;99.90
38910;DHT22;24676;51.360;12.354;2022-10-26T20:40:22;12.10;99.90
38910;DHT22;24676;51.360;12.354;2022-10-26T20:43:08;12.00;99.90
38910;DHT22;24676;51.360;12.354;2022-10-26T20:45:53;12.00;99.90
38910;DHT22;24676;51.360;12.354;2022-10-26T20:48:39;12.00;99.90
38910;DHT22;24676;51.360;12.354;2022-10-26T20:52:06;11.90;99.90
38910;DHT22;24676;51.360;12.354;2022-10-26T20:55:03;11.90;99.90
38910;DHT22;24676;51.360;12.354;2022-10-26T20:58:04;11.90;99.90
38910;DHT22;24676;51.360;12.354;2022-10-26T21:14:20;11.70;99.90
38910;DHT22;24676;51.360;12.354;2022-10-26T21:17:05;11.70;99.90
38910;DHT22;24676;51.360;12.354;2022-10-26T21:19:49;11.70;99.90
38910;DHT22;24676;51.360;12.354;2022-10-26T21:22:34;11.60;99.90
38910;DHT22;24676;51.360;12.354;2022-10-26T21:25:18;11.70;99.90
38910;DHT22;24676;51.360;12.354;2022-10-26T21:28:03;11.60;99.90
38910;DHT22;24676;51.360;12.354;2022-10-26T21:30:49;11.70;99.90
38910;DHT22;24676;51.360;12.354;2022-10-26T21:33:33;11.70;99.90
38910;DHT22;24676;51.360;12.354;2022-10-26T21:36:17;11.60;99.90
38910;DHT22;24676;51.360;12.354;2022-10-26T21:39:01;11.60;99.90
38910;DHT22;24676;51.360;12.354;2022-10-26T21:41:46;11.60;99.90
38910;DHT22;24676;51.360;12.354;2022-10-26T21:44:30;11.60;99.90
38910;DHT22;24676;51.360;12.354;2022-10-26T21:47:14;11.50;99.90
38910;DHT22;24676;51.360;12.354;2022-10-26T21:49:59;11.50;99.90
38910;DHT22;24676;51.360;12.354;2022-10-26T21:52:43;11.50;99.90
38910;DHT22;24676;51.360;12.354;2022-10-26T21:55:27;11.50;99.90
38910;DHT22;24676;51.360;12.354;2022-10-26T21:58:11;11.40;99.90
38910;DHT22;24676;51.360;12.354;2022-10-26T22:03:48;11.40;99.90
38910;DHT22;24676;51.360;12.354;2022-10-26T22:06:32;11.40;99.90
38910;DHT22;24676;51.360;12.354;2022-10-26T22:09:16;11.40;99.90
38910;DHT22;24676;51.360;12.354;2022-10-26T22:12:01;11.40;99.90
38910;DHT22;24676;51.360;12.354;2022-10-26T22:14:46;11.40;99.90
38910;DHT22;24676;51.360;12.354;2022-10-26T22:17:30;11.30;99.90
38910;DHT22;24676;51.360;12.354;2022-10-26T22:20:14;11.30;99.90
38910;DHT22;24676;51.360;12.354;2022-10-26T22:22:58;11.30;99.90
38910;DHT22;24676;51.360;12.354;2022-10-26T22:25:42;11.20;99.90
38910;DHT22;24676;51.360;12.354;2022-10-26T22:28:26;11.20;99.90
38910;DHT22;24676;51.360;12.354;2022-10-26T22:31:13;11.20;99.90
38910;DHT22;24676;51.360;12.354;2022-10-26T22:34:03;11.10;99.90
38910;DHT22;24676;51.360;12.354;2022-10-26T22:36:47;11.10;99.90
38910;DHT22;24676;51.360;12.354;2022-10-26T22:39:32;11.00;99.90
38910;DHT22;24676;51.360;12.354;2022-10-26T22:42:15;11.10;99.90
38910;DHT22;24676;51.360;12.354;2022-10-26T22:45:00;11.00;99.90
38910;DHT22;24676;51.360;12.354;2022-10-26T22:47:44;10.90;99.90
38910;DHT22;24676;51.360;12.354;2022-10-26T22:50:28;10.90;99.90
38910;DHT22;24676;51.360;12.354;2022-10-26T22:53:12;10.80;99.90
38910;DHT22;24676;51.360;12.354;2022-10-26T22:55:56;10.80;99.90
38910;DHT22;24676;51.360;12.354;2022-10-26T22:58:40;10.70;99.90
38910;DHT22;24676;51.360;12.354;2022-10-26T23:01:28;10.80;99.90
38910;DHT22;24676;51.360;12.354;2022-10-26T23:04:13;10.70;99.90
38910;DHT22;24676;51.360;12.354;2022-10-26T23:06:58;10.70;99.90
38910;DHT22;24676;51.360;12.354;2022-10-26T23:09:42;10.70;99.90
38910;DHT22;24676;51.360;12.354;2022-10-26T23:12:26;10.70;99.90
38910;DHT22;24676;51.360;12.354;2022-10-26T23:15:10;10.70;99.90
38910;DHT22;24676;51.360;12.354;2022-10-26T23:17:54;10.70;99.90